Time;durP1;ratioP1;P1;durP2;ratioP2;P2;SDS_P1;SDS_P2;PMS_P1;PMS_P2;Temp;Humidity;BMP_temperature;BMP_pressure;BME280_temperature;BME280_humidity;BME280_pressure;Samples;Min_cycle;Max_cycle;Signal;HPM_P1;HPM_P2
2020/12/26 00:00:21;;;;;;;12.65;2.90;;;;;;;;;;5062422;28;20170;-66
2020/12/26 00:02:48;;;;;;;10.02;2.53;;;;;;;;;;5064254;28;20496;-65
2020/12/26 00:05:14;;;;;;;11.52;2.30;;;;;;;;;;5060388;28;20513;-66
2020/12/26 00:07:41;;;;;;;10.15;2.40;;;;;;;;;;5058460;28;20032;-66
2020/12/26 00:10:07;;;;;;;10.02;2.95;;;;;;;;;;5066538;28;20500;-66
2020/12/26 00:12:34;;;;;;;11.02;3.08;;;;;;;;;;5067620;28;20097;-65
2020/12/26 00:15:01;;;;;;;10.43;2.85;;;;;;;;;;5059477;28;20045;-66
2020/12/26 00:17:27;;;;;;;9.82;2.35;;;;;;;;;;5064282;28;20068;-66
2020/12/26 00:19:54;;;;;;;8.77;2.05;;;;;;;;;;5061299;28;20048;-66
2020/12/26 00:22:20;;;;;;;9.57;2.08;;;;;;;;;;5060446;28;20400;-66
2020/12/26 00:24:46;;;;;;;12.13;2.10;;;;;;;;;;5064757;28;20044;-66
2020/12/26 00:27:13;;;;;;;9.15;2.05;;;;;;;;;;5061353;28;20047;-66
2020/12/26 00:29:39;;;;;;;8.05;2.80;;;;;;;;;;5061037;28;20049;-66
2020/12/26 00:32:05;;;;;;;8.30;2.10;;;;;;;;;;5058795;28;20039;-66
2020/12/26 00:34:32;;;;;;;9.05;2.03;;;;;;;;;;5051741;28;20498;-66
2020/12/26 00:36:58;;;;;;;9.43;2.40;;;;;;;;;;5062200;28;20044;-66
2020/12/26 00:39:24;;;;;;;8.13;1.85;;;;;;;;;;5061210;28;20045;-66
2020/12/26 00:41:50;;;;;;;5.45;1.67;;;;;;;;;;5061299;28;20128;-66
2020/12/26 00:44:17;;;;;;;9.50;1.80;;;;;;;;;;5063786;28;20052;-65
2020/12/26 00:46:43;;;;;;;10.32;1.80;;;;;;;;;;5054671;28;20041;-66
2020/12/26 00:49:09;;;;;;;9.90;1.95;;;;;;;;;;5056604;28;20048;-66
2020/12/26 00:51:36;;;;;;;7.97;1.70;;;;;;;;;;5054870;28;20079;-66
2020/12/26 00:54:02;;;;;;;7.50;2.03;;;;;;;;;;5059964;28;20085;-66
2020/12/26 00:56:28;;;;;;;11.40;1.75;;;;;;;;;;5057714;28;20787;-66
2020/12/26 00:58:55;;;;;;;10.98;1.48;;;;;;;;;;5055394;28;20484;-66
2020/12/26 01:01:21;;;;;;;6.32;1.45;;;;;;;;;;5062720;28;20414;-66
2020/12/26 01:03:48;;;;;;;10.98;1.50;;;;;;;;;;5060267;28;20159;-66
2020/12/26 01:06:15;;;;;;;11.55;1.90;;;;;;;;;;5064991;28;20066;-65
2020/12/26 01:08:42;;;;;;;4.18;1.80;;;;;;;;;;5059742;28;20098;-66
2020/12/26 01:11:08;;;;;;;14.25;3.15;;;;;;;;;;5060814;28;20191;-66
2020/12/26 01:13:35;;;;;;;5.78;1.20;;;;;;;;;;5058463;28;20115;-66
2020/12/26 01:16:01;;;;;;;5.30;1.05;;;;;;;;;;5063764;28;20044;-66
2020/12/26 01:18:29;;;;;;;6.90;1.13;;;;;;;;;;5061101;28;20063;-66
2020/12/26 01:20:56;;;;;;;13.38;1.40;;;;;;;;;;5059419;28;20365;-65
2020/12/26 01:23:23;;;;;;;10.70;1.20;;;;;;;;;;5062530;28;20051;-66
2020/12/26 01:25:49;;;;;;;9.68;1.23;;;;;;;;;;5065392;28;20032;-66
2020/12/26 01:28:16;;;;;;;9.00;0.88;;;;;;;;;;5063589;28;20051;-66
2020/12/26 01:30:42;;;;;;;6.72;0.98;;;;;;;;;;5058506;28;20095;-66
2020/12/26 01:33:09;;;;;;;5.90;0.82;;;;;;;;;;5052977;28;20044;-66
2020/12/26 01:35:35;;;;;;;11.35;2.03;;;;;;;;;;5058242;28;20079;-66
2020/12/26 01:38:01;;;;;;;13.20;1.33;;;;;;;;;;5060599;28;20036;-66
2020/12/26 01:40:27;;;;;;;6.50;1.20;;;;;;;;;;5069186;28;20032;-65
2020/12/26 01:42:54;;;;;;;7.82;1.02;;;;;;;;;;5067841;28;20123;-66
2020/12/26 01:45:20;;;;;;;5.75;1.13;;;;;;;;;;5064209;28;20036;-66
2020/12/26 01:47:47;;;;;;;5.55;0.98;;;;;;;;;;5062111;28;20040;-66
2020/12/26 01:50:14;;;;;;;5.25;0.75;;;;;;;;;;5064828;28;20049;-66
2020/12/26 01:52:40;;;;;;;2.92;0.65;;;;;;;;;;5064683;28;20036;-66
2020/12/26 01:55:07;;;;;;;3.08;0.82;;;;;;;;;;5067694;28;20040;-65
2020/12/26 01:57:34;;;;;;;5.65;1.05;;;;;;;;;;5068199;28;20095;-66
2020/12/26 02:00:02;;;;;;;6.32;0.90;;;;;;;;;;5071386;28;20041;-66
2020/12/26 02:02:29;;;;;;;7.43;1.35;;;;;;;;;;5063881;28;20475;-66
2020/12/26 02:04:55;;;;;;;4.40;1.25;;;;;;;;;;5069481;28;20442;-66
2020/12/26 02:07:21;;;;;;;5.28;1.20;;;;;;;;;;5075090;28;20408;-66
2020/12/26 02:09:47;;;;;;;5.72;0.82;;;;;;;;;;5075661;28;20049;-66
2020/12/26 02:12:14;;;;;;;7.55;1.08;;;;;;;;;;5062315;28;20048;-66
2020/12/26 02:14:45;;;;;;;3.30;0.60;;;;;;;;;;5066121;28;20518;-66
2020/12/26 02:17:11;;;;;;;4.22;0.93;;;;;;;;;;5062021;28;20040;-66
2020/12/26 02:19:38;;;;;;;2.22;0.80;;;;;;;;;;5068658;28;20044;-66
2020/12/26 02:22:04;;;;;;;5.82;1.08;;;;;;;;;;5067760;28;20525;-66
2020/12/26 02:24:30;;;;;;;6.90;0.90;;;;;;;;;;5073518;28;20383;-66
2020/12/26 02:26:57;;;;;;;2.65;0.95;;;;;;;;;;5064659;28;20120;-66
2020/12/26 02:29:23;;;;;;;8.80;1.00;;;;;;;;;;5061767;28;20047;-66
2020/12/26 02:31:49;;;;;;;5.28;0.70;;;;;;;;;;5066778;28;20129;-66
2020/12/26 02:34:15;;;;;;;7.15;0.80;;;;;;;;;;5066324;28;20045;-66
2020/12/26 02:36:42;;;;;;;8.85;1.48;;;;;;;;;;5066298;28;20453;-66
2020/12/26 02:39:08;;;;;;;7.43;0.90;;;;;;;;;;5065177;28;20120;-66
2020/12/26 02:41:34;;;;;;;4.20;1.00;;;;;;;;;;5064205;28;20044;-66
2020/12/26 02:44:01;;;;;;;7.03;1.02;;;;;;;;;;5058125;28;20045;-66
2020/12/26 02:46:27;;;;;;;5.85;0.88;;;;;;;;;;5063056;28;20421;-66
2020/12/26 02:48:53;;;;;;;2.78;0.82;;;;;;;;;;5066785;28;20128;-65
2020/12/26 02:51:19;;;;;;;5.43;1.17;;;;;;;;;;5068266;28;20041;-66
2020/12/26 02:53:46;;;;;;;3.95;1.30;;;;;;;;;;5062492;28;20044;-66
2020/12/26 02:56:12;;;;;;;12.82;1.73;;;;;;;;;;5066713;28;20078;-66
2020/12/26 02:58:40;;;;;;;9.23;1.50;;;;;;;;;;5067394;28;20125;-66
2020/12/26 03:01:07;;;;;;;8.13;1.60;;;;;;;;;;5060769;28;20105;-66
2020/12/26 03:03:34;;;;;;;10.20;1.65;;;;;;;;;;5059682;28;20170;-66
2020/12/26 03:06:00;;;;;;;12.05;1.65;;;;;;;;;;5068233;28;20097;-66
2020/12/26 03:08:27;;;;;;;8.20;1.60;;;;;;;;;;5064322;28;20048;-66
2020/12/26 03:10:53;;;;;;;9.63;1.27;;;;;;;;;;5062523;28;20044;-66
2020/12/26 03:13:19;;;;;;;4.97;1.20;;;;;;;;;;5056624;28;20098;-66
2020/12/26 03:15:46;;;;;;;7.43;1.27;;;;;;;;;;5063430;28;20405;-66
2020/12/26 03:18:12;;;;;;;14.50;1.27;;;;;;;;;;5066915;28;20032;-66
2020/12/26 03:20:38;;;;;;;9.48;1.40;;;;;;;;;;5067063;28;20040;-66
2020/12/26 03:23:04;;;;;;;9.88;1.42;;;;;;;;;;5067659;28;20066;-66
2020/12/26 03:25:32;;;;;;;4.35;1.17;;;;;;;;;;5068720;28;20562;-66
2020/12/26 03:27:59;;;;;;;7.88;1.30;;;;;;;;;;5062880;28;20049;-66
2020/12/26 03:30:25;;;;;;;6.72;1.33;;;;;;;;;;5065037;28;20084;-66
2020/12/26 03:32:51;;;;;;;12.13;1.83;;;;;;;;;;5062289;28;20041;-66
2020/12/26 03:35:18;;;;;;;6.78;1.40;;;;;;;;;;5067640;28;20093;-66
2020/12/26 03:37:44;;;;;;;7.75;1.95;;;;;;;;;;5069583;28;20037;-66
2020/12/26 03:40:10;;;;;;;8.27;1.38;;;;;;;;;;5074554;28;20048;-66
2020/12/26 03:42:36;;;;;;;13.85;1.52;;;;;;;;;;5060866;28;20434;-66
2020/12/26 03:45:03;;;;;;;8.73;1.70;;;;;;;;;;5062825;28;20048;-66
2020/12/26 03:47:30;;;;;;;6.75;1.42;;;;;;;;;;5066406;28;20036;-66
2020/12/26 03:49:56;;;;;;;7.47;1.27;;;;;;;;;;5063719;28;20044;-66
2020/12/26 03:52:22;;;;;;;14.43;1.83;;;;;;;;;;5062697;28;20385;-66
2020/12/26 03:54:48;;;;;;;6.65;1.30;;;;;;;;;;5069336;28;20082;-66
2020/12/26 03:57:15;;;;;;;12.63;1.65;;;;;;;;;;5072906;28;20043;-66
2020/12/26 03:59:41;;;;;;;3.70;1.30;;;;;;;;;;5063231;28;20048;-66
2020/12/26 04:02:08;;;;;;;9.10;1.65;;;;;;;;;;5063104;28;20033;-66
2020/12/26 04:04:35;;;;;;;7.97;1.40;;;;;;;;;;5058973;28;20127;-66
2020/12/26 04:07:01;;;;;;;6.82;1.65;;;;;;;;;;5061032;28;20051;-66
2020/12/26 04:09:27;;;;;;;6.82;1.58;;;;;;;;;;5065474;28;20051;-66
2020/12/26 04:11:54;;;;;;;7.90;1.35;;;;;;;;;;5085465;28;20066;-66
2020/12/26 04:14:20;;;;;;;10.93;2.22;;;;;;;;;;5072785;28;20063;-66
2020/12/26 04:16:46;;;;;;;8.68;1.60;;;;;;;;;;5071907;28;20052;-66
2020/12/26 04:19:13;;;;;;;11.05;2.90;;;;;;;;;;5064901;28;20052;-66
2020/12/26 04:21:39;;;;;;;10.63;1.88;;;;;;;;;;5063232;28;20045;-66
2020/12/26 04:24:05;;;;;;;7.20;1.55;;;;;;;;;;5065717;28;20049;-66
2020/12/26 04:26:32;;;;;;;7.88;1.35;;;;;;;;;;5063914;28;20052;-66
2020/12/26 04:28:58;;;;;;;8.68;1.50;;;;;;;;;;5066499;28;20051;-66
2020/12/26 04:31:24;;;;;;;13.35;1.83;;;;;;;;;;5066138;28;20074;-66
2020/12/26 04:33:50;;;;;;;9.93;1.65;;;;;;;;;;5064415;28;20032;-66
2020/12/26 04:36:17;;;;;;;7.45;1.55;;;;;;;;;;5065671;28;20499;-66
2020/12/26 04:38:43;;;;;;;5.18;1.20;;;;;;;;;;5066864;28;20507;-66
2020/12/26 04:41:09;;;;;;;8.65;1.60;;;;;;;;;;5070370;28;20445;-66
2020/12/26 04:43:35;;;;;;;11.38;1.80;;;;;;;;;;5065211;28;20488;-66
2020/12/26 04:46:05;;;;;;;11.07;1.95;;;;;;;;;;5072274;28;20047;-66
2020/12/26 04:48:31;;;;;;;7.80;1.50;;;;;;;;;;5070219;28;20119;-66
2020/12/26 04:51:02;;;;;;;8.13;2.20;;;;;;;;;;5073139;28;20043;-66
2020/12/26 04:53:32;;;;;;;6.78;1.70;;;;;;;;;;5074782;28;20080;-66
2020/12/26 04:56:00;;;;;;;7.40;1.98;;;;;;;;;;5064237;28;20044;-66
2020/12/26 04:58:28;;;;;;;5.82;1.55;;;;;;;;;;5063024;28;20162;-66
2020/12/26 05:00:54;;;;;;;9.63;1.98;;;;;;;;;;5064605;28;20048;-66
2020/12/26 05:03:21;;;;;;;8.77;3.03;;;;;;;;;;5065812;28;20114;-66
2020/12/26 05:05:47;;;;;;;12.52;2.15;;;;;;;;;;5065589;28;20060;-66
2020/12/26 05:08:15;;;;;;;7.90;2.22;;;;;;;;;;5082261;28;20041;-66
2020/12/26 05:10:41;;;;;;;15.60;2.30;;;;;;;;;;5072213;28;20115;-66
2020/12/26 05:13:09;;;;;;;15.55;1.85;;;;;;;;;;5061949;28;20037;-66
2020/12/26 05:15:35;;;;;;;11.48;1.92;;;;;;;;;;5062540;28;20467;-66
2020/12/26 05:18:02;;;;;;;10.00;1.67;;;;;;;;;;5064289;28;20545;-66
2020/12/26 05:20:28;;;;;;;9.73;1.70;;;;;;;;;;5067226;28;20138;-66
2020/12/26 05:23:09;;;;;;;8.85;2.20;;;;;;;;;;5065128;28;20032;-66
2020/12/26 05:25:43;;;;;;;11.43;2.05;;;;;;;;;;5063324;28;20473;-66
2020/12/26 05:28:10;;;;;;;7.32;1.85;;;;;;;;;;5061059;28;20834;-66
2020/12/26 05:30:37;;;;;;;12.02;2.10;;;;;;;;;;5066249;28;20136;-66
2020/12/26 05:33:04;;;;;;;6.68;1.83;;;;;;;;;;5066316;28;21697;-66
2020/12/26 05:35:38;;;;;;;14.00;3.55;;;;;;;;;;5067868;28;20048;-66
2020/12/26 05:38:15;;;;;;;8.57;2.05;;;;;;;;;;5066229;28;20070;-66
2020/12/26 05:40:43;;;;;;;11.00;2.22;;;;;;;;;;5066967;28;20139;-66
2020/12/26 05:43:10;;;;;;;9.40;2.15;;;;;;;;;;5065516;28;20543;-66
2020/12/26 05:45:42;;;;;;;10.20;2.20;;;;;;;;;;5067428;28;20135;-65
2020/12/26 05:48:10;;;;;;;6.82;2.17;;;;;;;;;;5069704;28;20036;-66
2020/12/26 05:50:37;;;;;;;15.95;2.92;;;;;;;;;;5068866;28;20052;-65
2020/12/26 05:53:03;;;;;;;9.15;2.38;;;;;;;;;;5065554;28;20431;-66
2020/12/26 05:55:40;;;;;;;9.20;2.50;;;;;;;;;;5065245;28;20487;-66
2020/12/26 05:58:07;;;;;;;13.57;2.97;;;;;;;;;;5066152;28;20102;-66
2020/12/26 06:00:34;;;;;;;9.32;2.60;;;;;;;;;;5068400;28;20475;-66
2020/12/26 06:03:01;;;;;;;11.48;3.35;;;;;;;;;;5069278;28;20113;-66
2020/12/26 06:05:28;;;;;;;10.85;3.40;;;;;;;;;;5073565;28;20036;-66
2020/12/26 06:07:55;;;;;;;13.10;3.08;;;;;;;;;;5062053;28;20484;-66
2020/12/26 06:10:21;;;;;;;13.70;3.53;;;;;;;;;;5065104;28;20338;-66
2020/12/26 06:12:50;;;;;;;18.17;3.90;;;;;;;;;;5066206;28;21752;-66
2020/12/26 06:15:20;;;;;;;7.68;3.20;;;;;;;;;;5065253;28;20040;-66
2020/12/26 06:17:50;;;;;;;11.23;3.78;;;;;;;;;;5069675;28;20411;-65
2020/12/26 06:20:16;;;;;;;13.45;3.45;;;;;;;;;;5064601;28;20445;-66
2020/12/26 06:22:43;;;;;;;17.27;3.70;;;;;;;;;;5068243;28;20434;-66
2020/12/26 06:25:12;;;;;;;11.30;2.88;;;;;;;;;;5067100;28;20048;-66
2020/12/26 06:27:44;;;;;;;17.05;3.60;;;;;;;;;;5088292;28;20672;-67
2020/12/26 06:30:11;;;;;;;12.25;3.70;;;;;;;;;;5069565;28;20077;-66
2020/12/26 06:32:37;;;;;;;11.30;2.88;;;;;;;;;;5068125;28;20041;-66
2020/12/26 06:35:04;;;;;;;14.10;3.30;;;;;;;;;;5066356;28;20076;-66
2020/12/26 06:37:30;;;;;;;14.00;3.15;;;;;;;;;;5064376;28;20041;-66
2020/12/26 06:39:56;;;;;;;9.43;3.03;;;;;;;;;;5065448;28;20040;-66
2020/12/26 06:42:24;;;;;;;12.35;3.47;;;;;;;;;;5066689;28;20120;-66
2020/12/26 06:44:50;;;;;;;13.82;3.28;;;;;;;;;;5071054;28;20037;-66
2020/12/26 06:47:36;;;;;;;15.02;3.30;;;;;;;;;;5074353;28;20549;-66
2020/12/26 06:50:16;;;;;;;17.50;3.35;;;;;;;;;;5067336;28;20036;-66
2020/12/26 06:52:42;;;;;;;11.45;3.08;;;;;;;;;;5065856;28;20047;-66
2020/12/26 06:55:09;;;;;;;13.30;3.17;;;;;;;;;;5063417;28;20052;-66
2020/12/26 06:57:36;;;;;;;10.60;3.25;;;;;;;;;;5062132;28;20076;-66
2020/12/26 07:00:03;;;;;;;11.73;2.88;;;;;;;;;;5061383;28;20113;-66
2020/12/26 07:02:29;;;;;;;14.77;4.80;;;;;;;;;;5061302;28;20040;-66
2020/12/26 07:04:56;;;;;;;14.70;4.40;;;;;;;;;;5059223;28;20064;-66
2020/12/26 07:07:37;;;;;;;13.20;3.42;;;;;;;;;;5065628;28;20043;-66
2020/12/26 07:10:04;;;;;;;17.98;3.05;;;;;;;;;;5066771;28;20044;-66
2020/12/26 07:12:43;;;;;;;15.95;3.17;;;;;;;;;;5065975;28;20044;-66
2020/12/26 07:15:09;;;;;;;9.30;3.17;;;;;;;;;;5068936;28;20479;-66
2020/12/26 07:17:35;;;;;;;15.40;3.55;;;;;;;;;;5061782;28;20056;-66
2020/12/26 07:20:02;;;;;;;11.95;4.32;;;;;;;;;;5066242;28;20438;-66
2020/12/26 07:22:29;;;;;;;13.70;3.15;;;;;;;;;;5063104;28;20045;-66
2020/12/26 07:24:56;;;;;;;17.27;4.60;;;;;;;;;;5064531;28;20052;-65
2020/12/26 07:27:23;;;;;;;9.85;3.10;;;;;;;;;;5059591;28;20037;-65
2020/12/26 07:29:54;;;;;;;10.55;2.95;;;;;;;;;;5060392;28;20451;-65
2020/12/26 07:32:43;;;;;;;14.55;3.00;;;;;;;;;;5059737;28;20044;-66
2020/12/26 07:35:16;;;;;;;14.57;2.55;;;;;;;;;;5058701;28;20073;-66
2020/12/26 07:37:57;;;;;;;15.55;2.85;;;;;;;;;;5062260;28;20044;-66
2020/12/26 07:40:24;;;;;;;12.27;3.17;;;;;;;;;;5063443;28;20059;-66
2020/12/26 07:42:50;;;;;;;8.93;3.05;;;;;;;;;;5064424;28;20059;-66
2020/12/26 07:45:18;;;;;;;17.50;3.35;;;;;;;;;;5065381;28;20078;-66
2020/12/26 07:47:45;;;;;;;12.40;2.92;;;;;;;;;;5073465;28;20040;-66
2020/12/26 07:50:13;;;;;;;10.50;3.22;;;;;;;;;;5066770;28;20418;-66
2020/12/26 07:52:44;;;;;;;15.52;3.28;;;;;;;;;;5073967;28;20261;-66
2020/12/26 07:55:11;;;;;;;13.35;2.35;;;;;;;;;;5080581;28;20044;-66
2020/12/26 07:57:37;;;;;;;9.75;2.85;;;;;;;;;;5066696;28;20045;-66
2020/12/26 08:00:04;;;;;;;10.40;2.50;;;;;;;;;;5065871;28;20052;-66
2020/12/26 08:02:30;;;;;;;9.95;2.33;;;;;;;;;;5070593;28;20135;-65
2020/12/26 08:04:56;;;;;;;9.40;2.38;;;;;;;;;;5075348;28;20098;-66
2020/12/26 08:07:24;;;;;;;15.90;2.88;;;;;;;;;;5071059;28;20065;-66
2020/12/26 08:09:51;;;;;;;10.55;2.50;;;;;;;;;;5073164;28;20162;-66
2020/12/26 08:12:19;;;;;;;16.00;3.55;;;;;;;;;;5069354;28;20082;-68
2020/12/26 08:14:45;;;;;;;14.32;2.20;;;;;;;;;;5072098;28;20146;-66
2020/12/26 08:17:12;;;;;;;14.02;2.60;;;;;;;;;;5074449;28;20049;-66
2020/12/26 08:19:38;;;;;;;17.48;2.35;;;;;;;;;;5073197;28;20114;-67
2020/12/26 08:22:05;;;;;;;16.50;2.88;;;;;;;;;;5070340;28;20524;-66
2020/12/26 08:24:31;;;;;;;11.48;2.40;;;;;;;;;;5070057;28;20119;-67
2020/12/26 08:26:57;;;;;;;14.73;2.70;;;;;;;;;;5072432;28;20146;-66
2020/12/26 08:29:30;;;;;;;11.18;2.22;;;;;;;;;;5070787;28;20045;-66
2020/12/26 08:32:00;;;;;;;11.57;2.88;;;;;;;;;;5072204;28;20053;-66
2020/12/26 08:34:37;;;;;;;13.73;3.00;;;;;;;;;;5062890;28;20041;-66
2020/12/26 08:40:07;;;;;;;12.65;2.28;;;;;;;;;;5109928;27;20912;-80
2020/12/26 08:42:36;;;;;;;12.90;2.70;;;;;;;;;;5110398;28;20051;-81
2020/12/26 08:45:23;;;;;;;9.35;3.10;;;;;;;;;;5110392;28;20043;-85
2020/12/26 08:47:49;;;;;;;9.20;2.20;;;;;;;;;;5142034;27;20115;-81
2020/12/26 08:50:15;;;;;;;11.35;2.00;;;;;;;;;;5117815;28;20090;-81
2020/12/26 08:52:43;;;;;;;11.25;1.90;;;;;;;;;;5117219;28;20047;-82
2020/12/26 08:55:10;;;;;;;10.57;2.20;;;;;;;;;;5109097;28;20036;-80
2020/12/26 08:57:37;;;;;;;11.93;2.40;;;;;;;;;;5109951;28;20040;-88
2020/12/26 09:00:16;;;;;;;12.57;2.00;;;;;;;;;;5109048;28;20039;-89
2020/12/26 09:02:50;;;;;;;16.80;3.42;;;;;;;;;;5095513;28;20511;-89
2020/12/26 09:05:23;;;;;;;10.80;2.05;;;;;;;;;;5109378;28;20091;-90
2020/12/26 09:08:00;;;;;;;10.47;2.23;;;;;;;;;;5108882;28;20040;-89
2020/12/26 09:10:26;;;;;;;13.02;3.17;;;;;;;;;;5108976;28;20406;-90
2020/12/26 09:13:00;;;;;;;9.13;1.77;;;;;;;;;;5109321;28;20134;-89
2020/12/26 09:15:26;;;;;;;10.85;1.70;;;;;;;;;;5108424;28;20040;-89
2020/12/26 09:17:52;;;;;;;9.25;1.55;;;;;;;;;;5094884;28;20202;-90
2020/12/26 09:20:19;;;;;;;8.40;2.28;;;;;;;;;;5109000;28;20043;-89
2020/12/26 09:22:45;;;;;;;7.38;1.90;;;;;;;;;;5108049;28;20040;-89
2020/12/26 09:25:24;;;;;;;9.13;1.90;;;;;;;;;;5108918;28;20343;-89
2020/12/26 09:28:01;;;;;;;7.95;2.00;;;;;;;;;;5108588;28;20035;-89
2020/12/26 09:30:27;;;;;;;10.77;2.10;;;;;;;;;;5109411;28;20059;-88
2020/12/26 09:32:54;;;;;;;13.45;1.83;;;;;;;;;;5142561;27;20039;-89
2020/12/26 09:35:21;;;;;;;6.07;1.65;;;;;;;;;;5108856;28;20051;-89
2020/12/26 09:37:54;;;;;;;8.48;1.63;;;;;;;;;;5107729;28;20118;-89
2020/12/26 09:40:25;;;;;;;7.05;1.85;;;;;;;;;;5108591;28;20403;-88
2020/12/26 09:42:52;;;;;;;9.10;1.90;;;;;;;;;;5141637;27;20043;-89
2020/12/26 09:45:19;;;;;;;7.82;1.73;;;;;;;;;;5107576;28;20070;-89
2020/12/26 09:47:46;;;;;;;10.52;2.47;;;;;;;;;;5108455;28;20048;-88
2020/12/26 09:50:12;;;;;;;12.63;2.35;;;;;;;;;;5101268;28;20043;-89
2020/12/26 09:52:39;;;;;;;6.22;1.88;;;;;;;;;;5094730;28;20072;-89
2020/12/26 09:55:07;;;;;;;10.40;1.85;;;;;;;;;;5094533;28;20491;-89
2020/12/26 09:57:33;;;;;;;11.23;2.53;;;;;;;;;;5094057;28;20059;-89
2020/12/26 09:59:59;;;;;;;7.43;1.90;;;;;;;;;;5094426;28;20062;-88
2020/12/26 10:02:26;;;;;;;9.15;2.13;;;;;;;;;;5094311;28;20487;-88
2020/12/26 10:04:52;;;;;;;8.02;2.70;;;;;;;;;;5093691;28;20040;-89
2020/12/26 10:07:19;;;;;;;7.60;2.30;;;;;;;;;;5094081;28;20149;-89
2020/12/26 10:09:46;;;;;;;12.70;2.92;;;;;;;;;;5094509;28;20046;-89
2020/12/26 10:12:12;;;;;;;10.95;2.58;;;;;;;;;;5093706;28;20048;-88
2020/12/26 10:14:38;;;;;;;15.00;3.20;;;;;;;;;;5094539;28;20123;-87
2020/12/26 10:17:05;;;;;;;11.27;3.33;;;;;;;;;;5094373;28;20036;-88
2020/12/26 10:19:31;;;;;;;15.90;3.60;;;;;;;;;;5093414;28;20043;-88
2020/12/26 10:21:57;;;;;;;8.40;3.10;;;;;;;;;;5094284;28;20048;-89
2020/12/26 10:24:24;;;;;;;9.73;2.78;;;;;;;;;;5093951;28;20035;-88
2020/12/26 10:26:50;;;;;;;12.27;3.67;;;;;;;;;;5093563;28;20383;-88
2020/12/26 10:29:16;;;;;;;14.70;3.10;;;;;;;;;;5094190;28;20105;-89
2020/12/26 10:31:43;;;;;;;13.95;3.40;;;;;;;;;;5094169;28;20123;-89
2020/12/26 10:34:09;;;;;;;17.00;3.63;;;;;;;;;;5093214;28;20122;-88
2020/12/26 10:36:41;;;;;;;10.20;4.38;;;;;;;;;;5093917;28;20035;-88
2020/12/26 10:39:07;;;;;;;11.07;3.40;;;;;;;;;;5093725;28;20133;-89
2020/12/26 10:41:34;;;;;;;20.88;4.22;;;;;;;;;;5088102;28;20040;-88
2020/12/26 10:44:00;;;;;;;11.02;3.80;;;;;;;;;;5073497;28;20132;-88
2020/12/26 10:46:27;;;;;;;9.65;3.78;;;;;;;;;;5086088;28;20040;-89
2020/12/26 10:48:53;;;;;;;9.70;3.05;;;;;;;;;;5093752;28;20501;-88
2020/12/26 10:51:20;;;;;;;9.50;4.28;;;;;;;;;;5093868;28;20040;-89
2020/12/26 10:53:46;;;;;;;9.35;3.60;;;;;;;;;;5089437;28;20085;-89
2020/12/26 10:56:12;;;;;;;14.48;3.53;;;;;;;;;;5082963;28;20040;-89
2020/12/26 10:58:38;;;;;;;10.32;3.95;;;;;;;;;;5093295;28;20055;-89
2020/12/26 11:01:05;;;;;;;8.05;3.47;;;;;;;;;;5092558;28;20071;-89
2020/12/26 11:03:31;;;;;;;11.00;4.10;;;;;;;;;;5092973;28;20068;-89
2020/12/26 11:05:59;;;;;;;13.80;4.13;;;;;;;;;;5093190;28;20068;-89
2020/12/26 11:08:26;;;;;;;13.85;3.92;;;;;;;;;;5092759;28;20044;-89
2020/12/26 11:10:52;;;;;;;12.63;3.67;;;;;;;;;;5093363;28;20036;-88
2020/12/26 11:13:19;;;;;;;10.48;4.05;;;;;;;;;;5093393;28;20048;-89
2020/12/26 11:15:45;;;;;;;8.13;3.88;;;;;;;;;;5092372;28;20144;-89
2020/12/26 11:18:11;;;;;;;11.10;3.88;;;;;;;;;;5092938;28;20040;-88
2020/12/26 11:20:38;;;;;;;10.90;3.60;;;;;;;;;;5093071;28;20040;-89
2020/12/26 11:23:04;;;;;;;9.50;3.90;;;;;;;;;;5125070;27;20472;-90
2020/12/26 11:25:30;;;;;;;8.50;3.10;;;;;;;;;;5092992;28;20040;-89
2020/12/26 11:27:57;;;;;;;13.10;4.43;;;;;;;;;;5125772;27;20078;-89
2020/12/26 11:30:23;;;;;;;19.40;4.38;;;;;;;;;;5092046;28;20050;-89
2020/12/26 11:32:49;;;;;;;8.90;4.50;;;;;;;;;;5092637;28;20036;-89
2020/12/26 11:35:16;;;;;;;12.20;3.53;;;;;;;;;;5091749;28;20036;-89
2020/12/26 11:37:42;;;;;;;11.23;4.45;;;;;;;;;;5091581;28;20040;-89
2020/12/26 11:40:08;;;;;;;10.55;4.07;;;;;;;;;;5092839;28;20071;-88
2020/12/26 11:42:38;;;;;;;15.73;4.47;;;;;;;;;;5092145;28;20071;-89
2020/12/26 11:45:06;;;;;;;12.40;3.65;;;;;;;;;;5125195;27;20199;-89
2020/12/26 11:47:33;;;;;;;14.70;4.72;;;;;;;;;;5092515;28;20483;-89
2020/12/26 11:50:00;;;;;;;13.38;4.70;;;;;;;;;;5107264;27;20044;-90
2020/12/26 11:52:26;;;;;;;16.17;5.30;;;;;;;;;;5092717;28;20077;-89
2020/12/26 11:54:52;;;;;;;12.15;4.53;;;;;;;;;;5079674;28;20127;-90
2020/12/26 11:57:19;;;;;;;15.85;4.43;;;;;;;;;;5074711;28;20490;-89
2020/12/26 11:59:45;;;;;;;10.07;3.97;;;;;;;;;;5125042;27;20039;-89
2020/12/26 12:02:12;;;;;;;13.98;3.78;;;;;;;;;;5125322;27;20128;-88
2020/12/26 12:04:38;;;;;;;9.60;3.45;;;;;;;;;;5091431;28;20040;-89
2020/12/26 12:07:05;;;;;;;14.30;3.72;;;;;;;;;;5092419;28;20063;-90
2020/12/26 12:09:31;;;;;;;12.30;3.75;;;;;;;;;;5092607;28;20040;-89
2020/12/26 12:11:58;;;;;;;11.32;5.05;;;;;;;;;;5091691;28;20120;-88
2020/12/26 12:14:24;;;;;;;10.48;4.15;;;;;;;;;;5091741;28;20048;-90
2020/12/26 12:16:51;;;;;;;13.23;4.68;;;;;;;;;;5125005;27;20464;-89
2020/12/26 12:19:17;;;;;;;13.82;4.38;;;;;;;;;;5091170;28;20047;-89
2020/12/26 12:21:44;;;;;;;14.20;3.88;;;;;;;;;;5092199;28;20075;-89
2020/12/26 12:24:10;;;;;;;12.57;4.22;;;;;;;;;;5091987;28;20039;-90
2020/12/26 12:26:37;;;;;;;13.60;3.85;;;;;;;;;;5091794;28;20115;-89
2020/12/26 12:29:03;;;;;;;15.45;4.03;;;;;;;;;;5091891;28;20074;-90
2020/12/26 12:31:36;;;;;;;17.00;5.40;;;;;;;;;;5092456;28;20040;-89
2020/12/26 12:34:02;;;;;;;12.35;3.47;;;;;;;;;;5124188;27;20105;-90
2020/12/26 12:36:28;;;;;;;9.32;4.13;;;;;;;;;;5091795;28;20040;-89
2020/12/26 12:38:55;;;;;;;12.48;3.85;;;;;;;;;;5091014;28;20218;-90
2020/12/26 12:41:21;;;;;;;18.88;4.95;;;;;;;;;;5090564;28;20424;-89
2020/12/26 12:43:47;;;;;;;7.95;2.95;;;;;;;;;;5124497;28;20044;-89
2020/12/26 12:46:14;;;;;;;10.25;3.40;;;;;;;;;;5091096;28;20036;-89
2020/12/26 12:48:41;;;;;;;12.52;3.05;;;;;;;;;;5124409;28;20036;-89
2020/12/26 12:51:08;;;;;;;10.13;4.07;;;;;;;;;;5091937;28;20055;-89
2020/12/26 12:53:35;;;;;;;13.80;3.95;;;;;;;;;;5090995;28;20441;-89
2020/12/26 12:56:01;;;;;;;13.90;4.53;;;;;;;;;;5091745;28;20040;-90
2020/12/26 12:58:28;;;;;;;18.48;5.03;;;;;;;;;;5092073;28;20055;-90
2020/12/26 13:00:54;;;;;;;13.52;5.20;;;;;;;;;;5091157;28;20040;-89
2020/12/26 13:03:21;;;;;;;12.50;5.78;;;;;;;;;;5091785;28;20044;-89
2020/12/26 13:05:47;;;;;;;16.27;5.13;;;;;;;;;;5091412;28;20442;-89
2020/12/26 13:08:13;;;;;;;14.73;6.53;;;;;;;;;;5091011;28;20051;-89
2020/12/26 13:10:40;;;;;;;9.48;5.18;;;;;;;;;;5091460;28;20044;-88
2020/12/26 13:13:06;;;;;;;9.25;5.25;;;;;;;;;;5091470;28;20043;-89
2020/12/26 13:15:33;;;;;;;12.48;5.10;;;;;;;;;;5090852;28;20048;-91
2020/12/26 13:17:59;;;;;;;14.05;6.07;;;;;;;;;;5091705;28;20171;-89
2020/12/26 13:20:26;;;;;;;11.10;6.70;;;;;;;;;;5091487;28;20040;-90
2020/12/26 13:22:53;;;;;;;10.80;5.95;;;;;;;;;;5090669;28;20131;-89
2020/12/26 13:25:19;;;;;;;13.02;6.18;;;;;;;;;;5091081;28;20048;-80
2020/12/26 13:27:45;;;;;;;11.07;5.80;;;;;;;;;;5094297;28;20203;-80
2020/12/26 13:30:12;;;;;;;12.82;6.65;;;;;;;;;;5093514;28;20036;-80
2020/12/26 13:32:38;;;;;;;13.45;6.22;;;;;;;;;;5094133;28;20048;-89
2020/12/26 13:35:04;;;;;;;9.88;6.45;;;;;;;;;;5102749;28;20152;-87
2020/12/26 13:37:31;;;;;;;14.02;6.68;;;;;;;;;;5095953;28;20047;-89
2020/12/26 13:39:57;;;;;;;15.52;6.75;;;;;;;;;;5095432;28;20052;-90
2020/12/26 13:42:23;;;;;;;10.90;6.90;;;;;;;;;;5092017;28;20040;-87
2020/12/26 13:44:51;;;;;;;13.32;8.95;;;;;;;;;;5100835;28;20123;-92
2020/12/26 13:47:18;;;;;;;13.57;8.15;;;;;;;;;;5100476;28;20123;-80
2020/12/26 13:49:45;;;;;;;16.38;9.88;;;;;;;;;;5090413;28;20040;-81
2020/12/26 13:52:11;;;;;;;14.77;9.48;;;;;;;;;;5091671;28;20042;-83
2020/12/26 13:54:37;;;;;;;12.32;8.52;;;;;;;;;;5094969;28;20047;-82
2020/12/26 13:57:04;;;;;;;11.13;8.15;;;;;;;;;;5092138;28;20124;-91
2020/12/26 13:59:30;;;;;;;12.93;8.10;;;;;;;;;;5092409;28;20139;-86
2020/12/26 14:01:56;;;;;;;18.55;8.65;;;;;;;;;;5090621;28;20135;-90
2020/12/26 14:04:23;;;;;;;13.75;8.52;;;;;;;;;;5089948;28;20043;-89
2020/12/26 14:06:49;;;;;;;13.15;8.27;;;;;;;;;;5091596;28;20062;-90
2020/12/26 14:09:15;;;;;;;17.95;8.98;;;;;;;;;;5094531;28;20065;-88
2020/12/26 14:11:43;;;;;;;15.25;9.38;;;;;;;;;;5088582;28;20068;-89
2020/12/26 14:14:10;;;;;;;17.25;10.48;;;;;;;;;;5089947;28;20499;-89
2020/12/26 14:16:36;;;;;;;14.13;9.55;;;;;;;;;;5094220;28;20028;-90
2020/12/26 14:19:04;;;;;;;19.60;12.63;;;;;;;;;;5092447;28;20114;-90
2020/12/26 14:21:31;;;;;;;15.27;10.88;;;;;;;;;;5090183;28;20040;-90
2020/12/26 14:23:58;;;;;;;14.27;11.13;;;;;;;;;;5097401;28;20044;-89
2020/12/26 14:26:24;;;;;;;15.75;12.80;;;;;;;;;;5100617;28;20039;-90
2020/12/26 14:28:51;;;;;;;17.40;12.15;;;;;;;;;;5100315;28;20080;-89
2020/12/26 14:31:17;;;;;;;19.73;12.95;;;;;;;;;;5091277;28;20045;-90
2020/12/26 14:33:44;;;;;;;22.90;15.23;;;;;;;;;;5092645;28;20087;-90
2020/12/26 14:36:10;;;;;;;20.10;12.85;;;;;;;;;;5099871;28;20047;-90
2020/12/26 14:38:36;;;;;;;18.60;13.57;;;;;;;;;;5107708;28;20058;-91